sensor_id;sensor_type;location;lat;lon;timestamp;P1;durP1;ratioP1;P2;durP2;ratioP2
68976;SDS011;56029;52.568;13.588;2022-07-31T00:00:06;9.23;;;5.00;;
68976;SDS011;56029;52.568;13.588;2022-07-31T00:02:53;11.52;;;5.10;;
68976;SDS011;56029;52.568;13.588;2022-07-31T00:05:19;8.77;;;4.70;;
68976;SDS011;56029;52.568;13.588;2022-07-31T00:07:45;9.38;;;4.85;;
68976;SDS011;56029;52.568;13.588;2022-07-31T00:10:11;8.07;;;4.17;;
68976;SDS011;56029;52.568;13.588;2022-07-31T00:12:36;8.53;;;4.90;;
68976;SDS011;56029;52.568;13.588;2022-07-31T00:15:03;8.45;;;4.88;;
68976;SDS011;56029;52.568;13.588;2022-07-31T00:17:29;9.63;;;5.13;;
68976;SDS011;56029;52.568;13.588;2022-07-31T00:19:55;10.07;;;4.75;;
68976;SDS011;56029;52.568;13.588;2022-07-31T00:22:20;8.27;;;4.80;;
68976;SDS011;56029;52.568;13.588;2022-07-31T00:24:46;8.93;;;4.60;;
68976;SDS011;56029;52.568;13.588;2022-07-31T00:27:12;8.27;;;4.53;;
68976;SDS011;56029;52.568;13.588;2022-07-31T00:29:38;6.97;;;4.70;;
68976;SDS011;56029;52.568;13.588;2022-07-31T00:32:03;7.83;;;4.20;;
68976;SDS011;56029;52.568;13.588;2022-07-31T00:34:30;8.55;;;4.82;;
68976;SDS011;56029;52.568;13.588;2022-07-31T00:36:58;9.00;;;4.80;;
68976;SDS011;56029;52.568;13.588;2022-07-31T00:39:24;12.10;;;5.17;;
68976;SDS011;56029;52.568;13.588;2022-07-31T00:41:49;9.13;;;5.03;;
68976;SDS011;56029;52.568;13.588;2022-07-31T00:44:15;10.43;;;5.10;;
68976;SDS011;56029;52.568;13.588;2022-07-31T00:46:40;7.90;;;5.13;;
68976;SDS011;56029;52.568;13.588;2022-07-31T00:49:07;9.70;;;4.70;;
68976;SDS011;56029;52.568;13.588;2022-07-31T00:51:37;8.32;;;4.47;;
68976;SDS011;56029;52.568;13.588;2022-07-31T00:54:04;7.97;;;4.57;;
68976;SDS011;56029;52.568;13.588;2022-07-31T00:56:33;9.00;;;4.57;;
68976;SDS011;56029;52.568;13.588;2022-07-31T00:58:58;9.23;;;4.75;;
68976;SDS011;56029;52.568;13.588;2022-07-31T01:01:24;7.88;;;4.43;;
68976;SDS011;56029;52.568;13.588;2022-07-31T01:03:50;10.43;;;4.70;;
68976;SDS011;56029;52.568;13.588;2022-07-31T01:06:16;7.22;;;4.60;;
68976;SDS011;56029;52.568;13.588;2022-07-31T01:08:41;7.33;;;4.20;;
68976;SDS011;56029;52.568;13.588;2022-07-31T01:11:09;8.00;;;4.43;;
68976;SDS011;56029;52.568;13.588;2022-07-31T01:13:40;9.30;;;4.70;;
68976;SDS011;56029;52.568;13.588;2022-07-31T01:16:12;8.98;;;4.50;;
68976;SDS011;56029;52.568;13.588;2022-07-31T01:18:39;7.60;;;4.68;;
68976;SDS011;56029;52.568;13.588;2022-07-31T01:21:07;8.02;;;4.13;;
68976;SDS011;56029;52.568;13.588;2022-07-31T01:23:43;6.00;;;4.10;;
68976;SDS011;56029;52.568;13.588;2022-07-31T01:26:17;8.30;;;4.40;;
68976;SDS011;56029;52.568;13.588;2022-07-31T01:28:57;7.15;;;4.70;;
68976;SDS011;56029;52.568;13.588;2022-07-31T01:31:34;6.80;;;4.20;;
68976;SDS011;56029;52.568;13.588;2022-07-31T01:34:06;9.45;;;4.82;;
68976;SDS011;56029;52.568;13.588;2022-07-31T01:36:38;9.10;;;4.53;;
68976;SDS011;56029;52.568;13.588;2022-07-31T01:39:06;7.07;;;4.50;;
68976;SDS011;56029;52.568;13.588;2022-07-31T01:41:37;8.35;;;4.55;;
68976;SDS011;56029;52.568;13.588;2022-07-31T01:44:05;7.55;;;4.30;;
68976;SDS011;56029;52.568;13.588;2022-07-31T01:46:32;6.80;;;4.23;;
68976;SDS011;56029;52.568;13.588;2022-07-31T01:48:59;7.25;;;4.38;;
68976;SDS011;56029;52.568;13.588;2022-07-31T01:51:27;7.38;;;4.60;;
68976;SDS011;56029;52.568;13.588;2022-07-31T01:53:54;8.80;;;4.70;;
68976;SDS011;56029;52.568;13.588;2022-07-31T01:56:20;8.00;;;4.70;;
68976;SDS011;56029;52.568;13.588;2022-07-31T01:58:46;7.50;;;4.78;;
68976;SDS011;56029;52.568;13.588;2022-07-31T02:01:14;7.10;;;4.68;;
68976;SDS011;56029;52.568;13.588;2022-07-31T02:03:40;8.00;;;4.27;;
68976;SDS011;56029;52.568;13.588;2022-07-31T02:06:08;7.18;;;4.65;;
68976;SDS011;56029;52.568;13.588;2022-07-31T02:08:37;8.07;;;4.70;;
68976;SDS011;56029;52.568;13.588;2022-07-31T02:11:03;9.20;;;5.25;;
68976;SDS011;56029;52.568;13.588;2022-07-31T02:13:30;9.32;;;4.72;;
68976;SDS011;56029;52.568;13.588;2022-07-31T02:15:56;7.20;;;4.23;;
68976;SDS011;56029;52.568;13.588;2022-07-31T02:18:22;7.78;;;4.93;;
68976;SDS011;56029;52.568;13.588;2022-07-31T02:20:49;6.90;;;4.20;;
68976;SDS011;56029;52.568;13.588;2022-07-31T02:23:15;8.00;;;4.45;;
68976;SDS011;56029;52.568;13.588;2022-07-31T02:25:41;6.67;;;4.20;;
68976;SDS011;56029;52.568;13.588;2022-07-31T02:28:10;7.38;;;4.28;;
68976;SDS011;56029;52.568;13.588;2022-07-31T02:30:39;6.60;;;4.35;;
68976;SDS011;56029;52.568;13.588;2022-07-31T02:33:09;7.80;;;4.60;;
68976;SDS011;56029;52.568;13.588;2022-07-31T02:35:37;8.98;;;4.60;;
68976;SDS011;56029;52.568;13.588;2022-07-31T02:38:05;9.00;;;4.50;;
68976;SDS011;56029;52.568;13.588;2022-07-31T02:40:32;7.82;;;4.57;;
68976;SDS011;56029;52.568;13.588;2022-07-31T02:42:59;8.60;;;4.60;;
68976;SDS011;56029;52.568;13.588;2022-07-31T02:45:25;7.18;;;4.43;;
68976;SDS011;56029;52.568;13.588;2022-07-31T02:47:51;7.00;;;4.40;;
68976;SDS011;56029;52.568;13.588;2022-07-31T02:50:17;7.43;;;4.57;;
68976;SDS011;56029;52.568;13.588;2022-07-31T02:52:43;7.80;;;4.32;;
68976;SDS011;56029;52.568;13.588;2022-07-31T02:55:09;7.13;;;4.77;;
68976;SDS011;56029;52.568;13.588;2022-07-31T02:57:35;7.05;;;4.28;;
68976;SDS011;56029;52.568;13.588;2022-07-31T03:00:12;6.50;;;4.30;;
68976;SDS011;56029;52.568;13.588;2022-07-31T03:02:38;8.40;;;4.60;;
68976;SDS011;56029;52.568;13.588;2022-07-31T03:05:05;7.53;;;4.13;;
68976;SDS011;56029;52.568;13.588;2022-07-31T03:07:31;8.05;;;5.18;;
68976;SDS011;56029;52.568;13.588;2022-07-31T03:09:56;7.23;;;4.40;;
68976;SDS011;56029;52.568;13.588;2022-07-31T03:12:23;7.03;;;4.40;;
68976;SDS011;56029;52.568;13.588;2022-07-31T03:14:49;7.13;;;4.72;;
68976;SDS011;56029;52.568;13.588;2022-07-31T03:17:16;9.05;;;5.10;;
68976;SDS011;56029;52.568;13.588;2022-07-31T03:19:43;8.25;;;4.90;;
68976;SDS011;56029;52.568;13.588;2022-07-31T03:22:10;7.23;;;4.60;;
68976;SDS011;56029;52.568;13.588;2022-07-31T03:24:35;8.20;;;4.82;;
68976;SDS011;56029;52.568;13.588;2022-07-31T03:27:01;8.60;;;4.45;;
68976;SDS011;56029;52.568;13.588;2022-07-31T03:29:35;8.10;;;4.85;;
68976;SDS011;56029;52.568;13.588;2022-07-31T03:32:04;7.03;;;4.45;;
68976;SDS011;56029;52.568;13.588;2022-07-31T03:34:30;7.80;;;4.90;;
68976;SDS011;56029;52.568;13.588;2022-07-31T03:36:56;7.95;;;4.65;;
68976;SDS011;56029;52.568;13.588;2022-07-31T03:39:23;9.00;;;4.80;;
68976;SDS011;56029;52.568;13.588;2022-07-31T03:41:49;7.93;;;4.60;;
68976;SDS011;56029;52.568;13.588;2022-07-31T03:44:15;8.50;;;4.60;;
68976;SDS011;56029;52.568;13.588;2022-07-31T03:46:41;9.57;;;4.72;;
68976;SDS011;56029;52.568;13.588;2022-07-31T03:49:06;8.97;;;4.90;;
68976;SDS011;56029;52.568;13.588;2022-07-31T03:51:32;8.27;;;4.55;;
68976;SDS011;56029;52.568;13.588;2022-07-31T03:53:58;8.18;;;4.32;;
68976;SDS011;56029;52.568;13.588;2022-07-31T03:56:24;7.57;;;4.67;;
68976;SDS011;56029;52.568;13.588;2022-07-31T03:58:51;8.10;;;4.45;;
68976;SDS011;56029;52.568;13.588;2022-07-31T04:01:17;7.60;;;4.67;;
68976;SDS011;56029;52.568;13.588;2022-07-31T04:03:43;6.70;;;4.20;;
68976;SDS011;56029;52.568;13.588;2022-07-31T04:06:08;7.30;;;4.60;;
68976;SDS011;56029;52.568;13.588;2022-07-31T04:08:34;7.63;;;4.35;;
68976;SDS011;56029;52.568;13.588;2022-07-31T04:10:59;6.90;;;4.60;;
68976;SDS011;56029;52.568;13.588;2022-07-31T04:13:25;8.13;;;4.83;;
68976;SDS011;56029;52.568;13.588;2022-07-31T04:15:50;6.80;;;4.47;;
68976;SDS011;56029;52.568;13.588;2022-07-31T04:18:16;6.87;;;4.30;;
68976;SDS011;56029;52.568;13.588;2022-07-31T04:20:41;7.60;;;4.30;;
68976;SDS011;56029;52.568;13.588;2022-07-31T04:23:07;7.00;;;4.45;;
68976;SDS011;56029;52.568;13.588;2022-07-31T04:25:32;7.33;;;4.80;;
68976;SDS011;56029;52.568;13.588;2022-07-31T04:27:59;7.90;;;4.75;;
68976;SDS011;56029;52.568;13.588;2022-07-31T04:30:25;7.77;;;4.77;;
68976;SDS011;56029;52.568;13.588;2022-07-31T04:32:51;7.97;;;4.90;;
68976;SDS011;56029;52.568;13.588;2022-07-31T04:35:16;9.30;;;4.70;;
68976;SDS011;56029;52.568;13.588;2022-07-31T04:37:42;8.85;;;5.03;;
68976;SDS011;56029;52.568;13.588;2022-07-31T04:40:08;7.03;;;4.60;;
68976;SDS011;56029;52.568;13.588;2022-07-31T04:42:35;6.15;;;4.43;;
68976;SDS011;56029;52.568;13.588;2022-07-31T04:45:01;8.00;;;4.13;;
68976;SDS011;56029;52.568;13.588;2022-07-31T04:47:26;7.67;;;4.13;;
68976;SDS011;56029;52.568;13.588;2022-07-31T04:49:52;6.53;;;4.13;;
68976;SDS011;56029;52.568;13.588;2022-07-31T04:52:17;6.03;;;3.90;;
68976;SDS011;56029;52.568;13.588;2022-07-31T04:54:43;6.28;;;3.83;;
68976;SDS011;56029;52.568;13.588;2022-07-31T04:57:08;7.73;;;3.83;;
68976;SDS011;56029;52.568;13.588;2022-07-31T04:59:37;5.97;;;3.73;;
68976;SDS011;56029;52.568;13.588;2022-07-31T05:02:02;8.07;;;3.80;;
68976;SDS011;56029;52.568;13.588;2022-07-31T05:04:27;5.67;;;3.37;;
68976;SDS011;56029;52.568;13.588;2022-07-31T05:06:53;5.80;;;3.65;;
68976;SDS011;56029;52.568;13.588;2022-07-31T05:09:20;5.50;;;3.60;;
68976;SDS011;56029;52.568;13.588;2022-07-31T05:11:50;6.70;;;3.95;;
68976;SDS011;56029;52.568;13.588;2022-07-31T05:14:17;7.13;;;3.80;;
68976;SDS011;56029;52.568;13.588;2022-07-31T05:16:44;4.80;;;3.47;;
68976;SDS011;56029;52.568;13.588;2022-07-31T05:19:11;4.60;;;3.27;;
68976;SDS011;56029;52.568;13.588;2022-07-31T05:21:37;6.63;;;3.60;;
68976;SDS011;56029;52.568;13.588;2022-07-31T05:24:03;5.95;;;3.45;;
68976;SDS011;56029;52.568;13.588;2022-07-31T05:26:29;6.40;;;3.67;;
68976;SDS011;56029;52.568;13.588;2022-07-31T05:28:55;4.90;;;3.45;;
68976;SDS011;56029;52.568;13.588;2022-07-31T05:31:22;5.38;;;3.95;;
68976;SDS011;56029;52.568;13.588;2022-07-31T05:33:48;6.88;;;3.85;;
68976;SDS011;56029;52.568;13.588;2022-07-31T05:36:14;5.43;;;3.53;;
68976;SDS011;56029;52.568;13.588;2022-07-31T05:38:41;5.63;;;3.60;;
68976;SDS011;56029;52.568;13.588;2022-07-31T05:41:07;6.63;;;3.40;;
68976;SDS011;56029;52.568;13.588;2022-07-31T05:43:33;5.65;;;3.55;;
68976;SDS011;56029;52.568;13.588;2022-07-31T05:45:59;6.20;;;3.30;;
68976;SDS011;56029;52.568;13.588;2022-07-31T05:48:24;6.05;;;3.47;;
68976;SDS011;56029;52.568;13.588;2022-07-31T05:50:50;6.90;;;3.37;;
68976;SDS011;56029;52.568;13.588;2022-07-31T05:53:17;5.43;;;3.30;;
68976;SDS011;56029;52.568;13.588;2022-07-31T05:55:44;5.50;;;3.28;;
68976;SDS011;56029;52.568;13.588;2022-07-31T05:58:13;6.78;;;3.40;;
68976;SDS011;56029;52.568;13.588;2022-07-31T06:00:40;7.10;;;3.17;;
68976;SDS011;56029;52.568;13.588;2022-07-31T06:03:06;5.50;;;3.13;;
68976;SDS011;56029;52.568;13.588;2022-07-31T06:05:32;6.38;;;3.20;;
68976;SDS011;56029;52.568;13.588;2022-07-31T06:07:58;4.93;;;3.23;;
68976;SDS011;56029;52.568;13.588;2022-07-31T06:10:24;4.90;;;3.00;;
68976;SDS011;56029;52.568;13.588;2022-07-31T06:12:50;4.25;;;3.08;;
68976;SDS011;56029;52.568;13.588;2022-07-31T06:15:16;4.40;;;2.70;;
68976;SDS011;56029;52.568;13.588;2022-07-31T06:17:42;4.82;;;2.85;;
68976;SDS011;56029;52.568;13.588;2022-07-31T06:20:08;5.32;;;2.40;;
68976;SDS011;56029;52.568;13.588;2022-07-31T06:22:35;3.70;;;2.30;;
68976;SDS011;56029;52.568;13.588;2022-07-31T06:25:01;4.13;;;2.30;;
68976;SDS011;56029;52.568;13.588;2022-07-31T06:27:27;4.55;;;2.38;;
68976;SDS011;56029;52.568;13.588;2022-07-31T06:29:53;3.83;;;2.40;;
68976;SDS011;56029;52.568;13.588;2022-07-31T06:32:20;5.35;;;2.75;;
68976;SDS011;56029;52.568;13.588;2022-07-31T06:34:46;4.22;;;2.50;;
68976;SDS011;56029;52.568;13.588;2022-07-31T06:37:12;4.63;;;2.60;;
68976;SDS011;56029;52.568;13.588;2022-07-31T06:39:37;5.75;;;2.60;;
68976;SDS011;56029;52.568;13.588;2022-07-31T06:42:03;3.63;;;2.50;;
68976;SDS011;56029;52.568;13.588;2022-07-31T06:44:32;4.97;;;2.70;;
68976;SDS011;56029;52.568;13.588;2022-07-31T06:46:58;3.80;;;2.70;;
68976;SDS011;56029;52.568;13.588;2022-07-31T06:49:24;5.25;;;3.08;;
68976;SDS011;56029;52.568;13.588;2022-07-31T06:51:50;4.47;;;2.67;;
68976;SDS011;56029;52.568;13.588;2022-07-31T06:54:16;4.88;;;2.22;;
68976;SDS011;56029;52.568;13.588;2022-07-31T06:56:42;4.70;;;2.50;;
68976;SDS011;56029;52.568;13.588;2022-07-31T06:59:07;4.47;;;2.35;;
68976;SDS011;56029;52.568;13.588;2022-07-31T07:01:33;2.90;;;2.07;;
68976;SDS011;56029;52.568;13.588;2022-07-31T07:03:59;3.53;;;2.10;;
68976;SDS011;56029;52.568;13.588;2022-07-31T07:06:24;3.90;;;2.13;;
68976;SDS011;56029;52.568;13.588;2022-07-31T07:08:50;3.72;;;2.45;;
68976;SDS011;56029;52.568;13.588;2022-07-31T07:11:17;4.45;;;2.13;;
68976;SDS011;56029;52.568;13.588;2022-07-31T07:13:43;3.40;;;2.20;;
68976;SDS011;56029;52.568;13.588;2022-07-31T07:16:10;4.10;;;2.30;;
68976;SDS011;56029;52.568;13.588;2022-07-31T07:18:36;4.15;;;2.40;;
68976;SDS011;56029;52.568;13.588;2022-07-31T07:21:01;3.83;;;2.40;;
68976;SDS011;56029;52.568;13.588;2022-07-31T07:23:29;6.22;;;3.20;;
68976;SDS011;56029;52.568;13.588;2022-07-31T07:25:55;5.20;;;3.58;;
68976;SDS011;56029;52.568;13.588;2022-07-31T07:28:21;4.25;;;2.90;;
68976;SDS011;56029;52.568;13.588;2022-07-31T07:30:46;4.57;;;3.03;;
68976;SDS011;56029;52.568;13.588;2022-07-31T07:33:12;5.00;;;3.00;;
68976;SDS011;56029;52.568;13.588;2022-07-31T07:35:38;4.37;;;2.90;;
68976;SDS011;56029;52.568;13.588;2022-07-31T07:38:04;4.90;;;3.00;;
68976;SDS011;56029;52.568;13.588;2022-07-31T07:40:30;4.68;;;3.30;;
68976;SDS011;56029;52.568;13.588;2022-07-31T07:42:56;5.33;;;3.60;;
68976;SDS011;56029;52.568;13.588;2022-07-31T07:45:21;6.20;;;3.67;;
68976;SDS011;56029;52.568;13.588;2022-07-31T07:47:47;5.10;;;3.30;;
68976;SDS011;56029;52.568;13.588;2022-07-31T07:50:13;6.88;;;3.72;;
68976;SDS011;56029;52.568;13.588;2022-07-31T07:52:40;7.82;;;3.80;;
68976;SDS011;56029;52.568;13.588;2022-07-31T07:55:05;5.03;;;3.70;;
68976;SDS011;56029;52.568;13.588;2022-07-31T07:57:33;6.90;;;3.90;;
68976;SDS011;56029;52.568;13.588;2022-07-31T08:00:00;6.18;;;3.78;;
68976;SDS011;56029;52.568;13.588;2022-07-31T08:02:29;5.22;;;3.47;;
68976;SDS011;56029;52.568;13.588;2022-07-31T08:04:54;6.27;;;3.83;;
68976;SDS011;56029;52.568;13.588;2022-07-31T08:07:29;6.13;;;4.27;;
68976;SDS011;56029;52.568;13.588;2022-07-31T08:09:56;6.82;;;4.10;;
68976;SDS011;56029;52.568;13.588;2022-07-31T08:12:22;6.80;;;3.80;;
68976;SDS011;56029;52.568;13.588;2022-07-31T08:14:48;5.72;;;4.10;;
68976;SDS011;56029;52.568;13.588;2022-07-31T08:17:14;6.07;;;4.30;;
68976;SDS011;56029;52.568;13.588;2022-07-31T08:19:40;7.37;;;4.00;;
68976;SDS011;56029;52.568;13.588;2022-07-31T08:22:06;7.05;;;4.15;;
68976;SDS011;56029;52.568;13.588;2022-07-31T08:24:32;7.57;;;4.38;;
68976;SDS011;56029;52.568;13.588;2022-07-31T08:26:58;7.25;;;4.10;;
68976;SDS011;56029;52.568;13.588;2022-07-31T08:29:42;7.27;;;4.70;;
68976;SDS011;56029;52.568;13.588;2022-07-31T08:32:08;7.07;;;4.70;;
68976;SDS011;56029;52.568;13.588;2022-07-31T08:34:33;6.67;;;4.67;;
68976;SDS011;56029;52.568;13.588;2022-07-31T08:36:59;8.38;;;5.30;;
68976;SDS011;56029;52.568;13.588;2022-07-31T08:39:24;8.23;;;4.90;;
68976;SDS011;56029;52.568;13.588;2022-07-31T08:41:50;6.77;;;4.53;;
68976;SDS011;56029;52.568;13.588;2022-07-31T08:44:16;6.65;;;4.82;;
68976;SDS011;56029;52.568;13.588;2022-07-31T08:46:41;6.97;;;4.67;;
68976;SDS011;56029;52.568;13.588;2022-07-31T08:49:08;6.97;;;4.72;;
68976;SDS011;56029;52.568;13.588;2022-07-31T08:51:37;7.47;;;5.22;;
68976;SDS011;56029;52.568;13.588;2022-07-31T08:54:07;6.40;;;5.13;;
68976;SDS011;56029;52.568;13.588;2022-07-31T08:56:35;7.50;;;5.27;;
68976;SDS011;56029;52.568;13.588;2022-07-31T08:59:02;8.35;;;5.13;;
68976;SDS011;56029;52.568;13.588;2022-07-31T09:01:31;8.55;;;5.45;;
68976;SDS011;56029;52.568;13.588;2022-07-31T09:03:58;8.77;;;5.95;;
68976;SDS011;56029;52.568;13.588;2022-07-31T09:06:24;8.90;;;6.47;;
68976;SDS011;56029;52.568;13.588;2022-07-31T09:08:49;8.37;;;6.40;;
68976;SDS011;56029;52.568;13.588;2022-07-31T09:11:15;9.70;;;6.10;;
68976;SDS011;56029;52.568;13.588;2022-07-31T09:16:19;7.93;;;6.30;;
68976;SDS011;56029;52.568;13.588;2022-07-31T09:18:53;8.50;;;6.47;;
68976;SDS011;56029;52.568;13.588;2022-07-31T09:21:20;8.93;;;6.70;;
68976;SDS011;56029;52.568;13.588;2022-07-31T09:23:46;10.50;;;6.57;;
68976;SDS011;56029;52.568;13.588;2022-07-31T09:26:12;8.57;;;5.93;;
68976;SDS011;56029;52.568;13.588;2022-07-31T09:28:38;9.43;;;6.73;;
68976;SDS011;56029;52.568;13.588;2022-07-31T09:31:07;9.27;;;6.53;;
68976;SDS011;56029;52.568;13.588;2022-07-31T09:33:33;8.00;;;6.00;;
68976;SDS011;56029;52.568;13.588;2022-07-31T09:36:00;7.45;;;6.10;;
68976;SDS011;56029;52.568;13.588;2022-07-31T09:38:34;7.43;;;5.70;;
68976;SDS011;56029;52.568;13.588;2022-07-31T09:41:16;9.25;;;6.15;;
68976;SDS011;56029;52.568;13.588;2022-07-31T09:43:53;7.65;;;6.13;;
68976;SDS011;56029;52.568;13.588;2022-07-31T09:46:20;8.35;;;6.40;;
68976;SDS011;56029;52.568;13.588;2022-07-31T09:48:49;11.68;;;6.10;;
68976;SDS011;56029;52.568;13.588;2022-07-31T09:51:16;8.50;;;5.80;;
68976;SDS011;56029;52.568;13.588;2022-07-31T09:53:43;8.45;;;5.93;;
68976;SDS011;56029;52.568;13.588;2022-07-31T09:56:28;7.97;;;5.65;;
68976;SDS011;56029;52.568;13.588;2022-07-31T09:58:55;7.25;;;5.72;;
68976;SDS011;56029;52.568;13.588;2022-07-31T10:01:20;8.43;;;5.70;;
68976;SDS011;56029;52.568;13.588;2022-07-31T10:03:47;7.53;;;5.43;;
68976;SDS011;56029;52.568;13.588;2022-07-31T10:06:14;7.65;;;5.57;;
68976;SDS011;56029;52.568;13.588;2022-07-31T10:08:40;8.85;;;5.50;;
68976;SDS011;56029;52.568;13.588;2022-07-31T10:11:08;7.47;;;4.85;;
68976;SDS011;56029;52.568;13.588;2022-07-31T10:13:35;7.70;;;5.23;;
68976;SDS011;56029;52.568;13.588;2022-07-31T10:16:04;6.78;;;5.03;;
68976;SDS011;56029;52.568;13.588;2022-07-31T10:18:31;8.48;;;5.30;;
68976;SDS011;56029;52.568;13.588;2022-07-31T10:21:01;7.90;;;5.20;;
68976;SDS011;56029;52.568;13.588;2022-07-31T10:23:29;6.63;;;4.93;;
68976;SDS011;56029;52.568;13.588;2022-07-31T10:25:59;8.23;;;5.13;;
68976;SDS011;56029;52.568;13.588;2022-07-31T10:28:25;8.70;;;5.07;;
68976;SDS011;56029;52.568;13.588;2022-07-31T10:30:52;6.63;;;5.10;;
68976;SDS011;56029;52.568;13.588;2022-07-31T10:33:19;8.20;;;5.30;;
68976;SDS011;56029;52.568;13.588;2022-07-31T10:36:00;7.10;;;5.13;;
68976;SDS011;56029;52.568;13.588;2022-07-31T10:38:33;7.47;;;4.80;;
68976;SDS011;56029;52.568;13.588;2022-07-31T10:41:07;7.28;;;5.20;;
68976;SDS011;56029;52.568;13.588;2022-07-31T10:46:09;6.85;;;5.40;;
68976;SDS011;56029;52.568;13.588;2022-07-31T10:48:35;7.55;;;5.85;;
68976;SDS011;56029;52.568;13.588;2022-07-31T10:51:02;8.37;;;5.33;;
68976;SDS011;56029;52.568;13.588;2022-07-31T10:53:29;7.43;;;5.30;;
68976;SDS011;56029;52.568;13.588;2022-07-31T10:56:01;6.47;;;5.38;;
68976;SDS011;56029;52.568;13.588;2022-07-31T10:58:29;6.10;;;4.80;;
68976;SDS011;56029;52.568;13.588;2022-07-31T11:01:04;7.43;;;5.13;;
68976;SDS011;56029;52.568;13.588;2022-07-31T11:03:41;6.57;;;5.00;;
68976;SDS011;56029;52.568;13.588;2022-07-31T11:06:14;7.03;;;5.50;;
68976;SDS011;56029;52.568;13.588;2022-07-31T11:08:42;8.93;;;5.35;;
68976;SDS011;56029;52.568;13.588;2022-07-31T11:11:08;7.03;;;4.75;;
68976;SDS011;56029;52.568;13.588;2022-07-31T11:13:45;6.55;;;4.63;;
68976;SDS011;56029;52.568;13.588;2022-07-31T11:16:13;6.83;;;4.43;;
68976;SDS011;56029;52.568;13.588;2022-07-31T11:18:39;6.75;;;4.90;;
68976;SDS011;56029;52.568;13.588;2022-07-31T11:21:06;6.23;;;4.90;;
68976;SDS011;56029;52.568;13.588;2022-07-31T11:23:33;6.32;;;4.78;;
68976;SDS011;56029;52.568;13.588;2022-07-31T11:26:02;5.80;;;4.60;;
68976;SDS011;56029;52.568;13.588;2022-07-31T11:28:29;7.50;;;4.55;;
68976;SDS011;56029;52.568;13.588;2022-07-31T11:30:56;7.20;;;4.60;;
68976;SDS011;56029;52.568;13.588;2022-07-31T11:33:26;8.13;;;4.60;;
68976;SDS011;56029;52.568;13.588;2022-07-31T11:35:56;7.05;;;5.15;;
68976;SDS011;56029;52.568;13.588;2022-07-31T11:38:28;5.85;;;4.50;;
68976;SDS011;56029;52.568;13.588;2022-07-31T11:40:54;7.83;;;4.77;;
68976;SDS011;56029;52.568;13.588;2022-07-31T11:43:20;6.22;;;4.57;;
68976;SDS011;56029;52.568;13.588;2022-07-31T11:45:49;5.95;;;4.78;;
68976;SDS011;56029;52.568;13.588;2022-07-31T11:48:17;6.50;;;4.57;;
68976;SDS011;56029;52.568;13.588;2022-07-31T11:50:43;6.85;;;4.72;;
68976;SDS011;56029;52.568;13.588;2022-07-31T11:53:10;5.95;;;4.60;;
68976;SDS011;56029;52.568;13.588;2022-07-31T11:55:58;6.40;;;4.40;;
68976;SDS011;56029;52.568;13.588;2022-07-31T11:58:26;6.95;;;4.95;;
68976;SDS011;56029;52.568;13.588;2022-07-31T12:00:57;6.53;;;4.63;;
68976;SDS011;56029;52.568;13.588;2022-07-31T12:03:36;6.82;;;4.88;;
68976;SDS011;56029;52.568;13.588;2022-07-31T12:06:04;5.95;;;4.65;;
68976;SDS011;56029;52.568;13.588;2022-07-31T12:08:30;7.97;;;5.05;;
68976;SDS011;56029;52.568;13.588;2022-07-31T12:10:57;37.25;;;6.28;;
68976;SDS011;56029;52.568;13.588;2022-07-31T12:13:24;17.07;;;4.90;;
68976;SDS011;56029;52.568;13.588;2022-07-31T12:15:53;27.17;;;5.28;;
68976;SDS011;56029;52.568;13.588;2022-07-31T12:18:43;13.82;;;4.78;;
68976;SDS011;56029;52.568;13.588;2022-07-31T12:21:09;8.90;;;5.05;;
68976;SDS011;56029;52.568;13.588;2022-07-31T12:23:41;7.77;;;5.10;;
68976;SDS011;56029;52.568;13.588;2022-07-31T12:26:11;21.48;;;5.75;;
68976;SDS011;56029;52.568;13.588;2022-07-31T12:28:38;6.13;;;4.70;;
68976;SDS011;56029;52.568;13.588;2022-07-31T12:31:04;6.32;;;4.45;;
68976;SDS011;56029;52.568;13.588;2022-07-31T12:33:40;6.00;;;4.50;;
68976;SDS011;56029;52.568;13.588;2022-07-31T12:36:10;5.60;;;4.40;;
68976;SDS011;56029;52.568;13.588;2022-07-31T12:38:37;8.27;;;6.50;;
68976;SDS011;56029;52.568;13.588;2022-07-31T12:41:03;6.00;;;4.70;;
68976;SDS011;56029;52.568;13.588;2022-07-31T12:43:29;5.97;;;4.22;;
68976;SDS011;56029;52.568;13.588;2022-07-31T12:45:55;6.70;;;4.60;;
68976;SDS011;56029;52.568;13.588;2022-07-31T12:48:27;10.20;;;4.70;;
68976;SDS011;56029;52.568;13.588;2022-07-31T12:50:53;9.30;;;4.95;;
68976;SDS011;56029;52.568;13.588;2022-07-31T12:53:18;6.93;;;5.33;;
68976;SDS011;56029;52.568;13.588;2022-07-31T12:55:44;11.90;;;5.77;;
68976;SDS011;56029;52.568;13.588;2022-07-31T12:58:09;8.00;;;5.80;;
68976;SDS011;56029;52.568;13.588;2022-07-31T13:00:35;7.75;;;5.80;;
68976;SDS011;56029;52.568;13.588;2022-07-31T13:03:00;10.13;;;5.80;;
68976;SDS011;56029;52.568;13.588;2022-07-31T13:05:26;8.57;;;5.77;;
68976;SDS011;56029;52.568;13.588;2022-07-31T13:07:53;9.68;;;5.57;;
68976;SDS011;56029;52.568;13.588;2022-07-31T13:10:19;6.68;;;5.47;;
68976;SDS011;56029;52.568;13.588;2022-07-31T13:12:46;7.85;;;5.32;;
68976;SDS011;56029;52.568;13.588;2022-07-31T13:15:14;7.65;;;5.45;;
68976;SDS011;56029;52.568;13.588;2022-07-31T13:17:41;7.87;;;5.03;;
68976;SDS011;56029;52.568;13.588;2022-07-31T13:20:07;7.65;;;5.57;;
68976;SDS011;56029;52.568;13.588;2022-07-31T13:22:33;8.30;;;5.85;;
68976;SDS011;56029;52.568;13.588;2022-07-31T13:24:59;8.70;;;5.80;;
68976;SDS011;56029;52.568;13.588;2022-07-31T13:27:25;8.65;;;5.95;;
68976;SDS011;56029;52.568;13.588;2022-07-31T13:29:50;7.70;;;5.20;;
68976;SDS011;56029;52.568;13.588;2022-07-31T13:32:15;10.03;;;5.47;;
68976;SDS011;56029;52.568;13.588;2022-07-31T13:34:41;6.90;;;5.50;;
68976;SDS011;56029;52.568;13.588;2022-07-31T13:37:07;9.03;;;5.60;;
68976;SDS011;56029;52.568;13.588;2022-07-31T13:39:32;6.93;;;5.40;;
68976;SDS011;56029;52.568;13.588;2022-07-31T13:41:58;6.27;;;5.10;;
68976;SDS011;56029;52.568;13.588;2022-07-31T13:44:23;8.47;;;5.43;;
68976;SDS011;56029;52.568;13.588;2022-07-31T13:46:49;9.70;;;5.93;;
68976;SDS011;56029;52.568;13.588;2022-07-31T13:49:14;7.40;;;5.67;;
68976;SDS011;56029;52.568;13.588;2022-07-31T13:51:40;10.70;;;5.47;;
68976;SDS011;56029;52.568;13.588;2022-07-31T13:54:06;7.70;;;5.10;;
68976;SDS011;56029;52.568;13.588;2022-07-31T13:56:31;6.38;;;5.05;;
68976;SDS011;56029;52.568;13.588;2022-07-31T13:58:57;8.20;;;4.97;;
68976;SDS011;56029;52.568;13.588;2022-07-31T14:01:23;6.27;;;4.80;;
68976;SDS011;56029;52.568;13.588;2022-07-31T14:03:48;6.30;;;4.82;;
68976;SDS011;56029;52.568;13.588;2022-07-31T14:06:14;7.00;;;4.83;;
68976;SDS011;56029;52.568;13.588;2022-07-31T14:08:39;5.70;;;4.30;;
68976;SDS011;56029;52.568;13.588;2022-07-31T14:11:05;7.33;;;4.50;;
68976;SDS011;56029;52.568;13.588;2022-07-31T14:13:30;5.80;;;4.30;;
68976;SDS011;56029;52.568;13.588;2022-07-31T14:15:56;6.65;;;4.53;;
68976;SDS011;56029;52.568;13.588;2022-07-31T14:18:21;5.70;;;4.30;;
68976;SDS011;56029;52.568;13.588;2022-07-31T14:20:48;6.80;;;4.10;;
68976;SDS011;56029;52.568;13.588;2022-07-31T14:23:13;4.57;;;4.00;;
68976;SDS011;56029;52.568;13.588;2022-07-31T14:25:39;5.30;;;4.07;;
68976;SDS011;56029;52.568;13.588;2022-07-31T14:28:06;6.07;;;4.50;;
68976;SDS011;56029;52.568;13.588;2022-07-31T14:30:33;6.90;;;4.88;;
68976;SDS011;56029;52.568;13.588;2022-07-31T14:32:59;7.00;;;4.90;;
68976;SDS011;56029;52.568;13.588;2022-07-31T14:35:25;6.97;;;4.57;;
68976;SDS011;56029;52.568;13.588;2022-07-31T14:37:51;7.85;;;4.90;;